createdAt,value
2017-02-23T00:00:18.127Z,16.63
2017-02-23T00:01:27.432Z,16.61
2017-02-23T00:02:37.635Z,16.61
2017-02-23T00:03:47.456Z,16.64
2017-02-23T00:04:56.773Z,16.64
2017-02-23T00:06:06.134Z,16.64
2017-02-23T00:07:15.891Z,16.64
2017-02-23T00:08:25.200Z,16.58
2017-02-23T00:09:35.025Z,16.7
2017-02-23T00:10:44.362Z,16.63
2017-02-23T00:11:54.146Z,16.6
2017-02-23T00:13:03.920Z,16.58
2017-02-23T00:14:14.610Z,16.64
2017-02-23T00:15:24.415Z,16.63
2017-02-23T00:16:34.184Z,16.6
2017-02-23T00:17:43.510Z,16.58
2017-02-23T00:18:52.864Z,16.66
2017-02-23T00:20:02.635Z,16.58
2017-02-23T00:21:12.003Z,16.64
2017-02-23T00:22:21.318Z,16.61
2017-02-23T00:23:30.634Z,16.6
2017-02-23T00:24:39.942Z,16.67
2017-02-23T00:25:49.713Z,16.6
2017-02-23T00:26:59.088Z,16.61
2017-02-23T00:28:09.735Z,16.64
2017-02-23T00:29:19.522Z,16.67
2017-02-23T00:30:29.292Z,16.66
2017-02-23T00:31:39.062Z,16.6
2017-02-23T00:32:48.434Z,16.58
2017-02-23T00:33:57.757Z,16.61
2017-02-23T00:35:07.068Z,16.64
2017-02-23T00:36:17.710Z,16.66
2017-02-23T00:37:27.476Z,16.63
2017-02-23T00:38:36.836Z,16.6
2017-02-23T00:39:46.173Z,16.67
2017-02-23T00:40:55.510Z,16.64
2017-02-23T00:42:04.848Z,16.64
2017-02-23T00:43:15.053Z,16.6
2017-02-23T00:44:24.468Z,16.64
2017-02-23T00:45:34.679Z,16.66
2017-02-23T00:46:43.992Z,16.61
2017-02-23T00:47:53.337Z,16.64
2017-02-23T00:49:02.678Z,16.64
2017-02-23T00:50:12.038Z,16.63
2017-02-23T00:51:21.356Z,16.61
2017-02-23T00:52:30.678Z,16.52
2017-02-23T00:53:39.990Z,16.56
2017-02-23T00:54:49.307Z,16.66
2017-02-23T00:55:58.688Z,16.49
2017-02-23T00:57:08.476Z,16.66
2017-02-23T00:58:18.243Z,16.56
2017-02-23T00:59:27.554Z,16.53
2017-02-23T01:00:37.313Z,16.53
2017-02-23T01:01:46.689Z,16.56
2017-02-23T01:02:56.466Z,16.5
2017-02-23T01:04:05.808Z,16.5
2017-02-23T01:05:15.126Z,16.6
2017-02-23T01:06:24.887Z,16.61
2017-02-23T01:07:34.695Z,16.52
2017-02-23T01:08:44.015Z,16.48
2017-02-23T01:09:53.762Z,16.48
2017-02-23T01:11:03.527Z,16.53
2017-02-23T01:12:12.847Z,16.5
2017-02-23T01:13:22.201Z,16.5
2017-02-23T01:14:31.550Z,16.61
2017-02-23T01:15:41.763Z,16.5
2017-02-23T01:16:51.088Z,16.63
2017-02-23T01:18:00.408Z,16.49
2017-02-23T01:19:10.214Z,16.5
2017-02-23T01:20:19.540Z,16.5
2017-02-23T01:21:28.888Z,16.6
2017-02-23T01:22:38.198Z,16.53
2017-02-23T01:23:47.503Z,16.6
2017-02-23T01:24:56.864Z,16.53
2017-02-23T01:26:06.633Z,16.49
2017-02-23T01:27:16.395Z,16.46
2017-02-23T01:28:25.711Z,16.56
2017-02-23T01:29:35.028Z,16.43
2017-02-23T01:30:44.394Z,16.5
2017-02-23T01:31:54.168Z,16.48
2017-02-23T01:33:03.928Z,16.48
2017-02-23T01:34:13.253Z,16.45
2017-02-23T01:35:23.003Z,16.43
2017-02-23T01:36:32.842Z,16.49
2017-02-23T01:37:43.073Z,16.52
2017-02-23T01:38:52.399Z,16.49
2017-02-23T01:40:01.727Z,16.52
2017-02-23T01:41:11.051Z,16.56
2017-02-23T01:42:21.290Z,16.5
2017-02-23T01:43:30.621Z,16.53
2017-02-23T01:44:41.260Z,16.57
2017-02-23T01:45:50.582Z,16.5
2017-02-23T01:46:59.923Z,16.57
2017-02-23T01:48:09.718Z,16.56
2017-02-23T01:49:19.037Z,16.56
2017-02-23T01:50:28.374Z,16.52
2017-02-23T01:51:37.688Z,16.53
2017-02-23T01:52:47.005Z,16.5
2017-02-23T01:53:56.386Z,16.48
2017-02-23T01:55:05.711Z,16.46
2017-02-23T01:56:15.028Z,16.53
2017-02-23T01:57:25.235Z,16.49
2017-02-23T01:58:35.038Z,16.53
2017-02-23T01:59:45.292Z,16.49
2017-02-23T02:00:54.625Z,16.48
2017-02-23T02:02:04.414Z,16.43
2017-02-23T02:03:13.722Z,16.49
2017-02-23T02:04:23.045Z,16.5
2017-02-23T02:05:32.414Z,16.48
2017-02-23T02:06:41.732Z,16.49
2017-02-23T02:07:51.048Z,16.5
2017-02-23T02:09:00.373Z,16.46
2017-02-23T02:10:10.143Z,16.46
2017-02-23T02:11:19.548Z,16.49
2017-02-23T02:12:28.885Z,16.53
2017-02-23T02:13:38.642Z,16.42
2017-02-23T02:14:48.418Z,16.39
2017-02-23T02:15:58.169Z,16.5
2017-02-23T02:17:07.553Z,16.49
2017-02-23T02:18:17.305Z,16.39
2017-02-23T02:19:27.093Z,16.43
2017-02-23T02:20:36.848Z,16.42
2017-02-23T02:21:46.602Z,16.41
2017-02-23T02:22:56.068Z,16.39
2017-02-23T02:24:05.376Z,16.39
2017-02-23T02:25:15.161Z,16.48
2017-02-23T02:26:25.355Z,16.39
2017-02-23T02:27:35.141Z,16.46
2017-02-23T02:28:45.945Z,16.38
2017-02-23T02:29:55.695Z,16.43
2017-02-23T02:31:05.465Z,16.39
2017-02-23T02:32:15.244Z,16.45
2017-02-23T02:33:25.019Z,16.42
2017-02-23T02:34:35.281Z,16.41
2017-02-23T02:35:44.596Z,16.45
2017-02-23T02:36:54.357Z,16.42
2017-02-23T02:38:04.128Z,16.38
2017-02-23T02:39:13.900Z,16.35
2017-02-23T02:40:23.703Z,16.46
2017-02-23T02:41:33.036Z,16.39
2017-02-23T02:42:43.253Z,16.42
2017-02-23T02:43:52.582Z,16.39
2017-02-23T02:45:01.898Z,16.43
2017-02-23T02:46:11.693Z,16.41
2017-02-23T02:47:21.890Z,16.41
2017-02-23T02:48:31.203Z,16.35
2017-02-23T02:49:40.520Z,16.38
2017-02-23T02:50:50.317Z,16.35
2017-02-23T02:52:00.575Z,16.42
2017-02-23T02:53:10.355Z,16.41
2017-02-23T02:54:20.113Z,16.41
2017-02-23T02:55:29.454Z,16.34
2017-02-23T02:56:38.772Z,16.31
2017-02-23T02:57:48.140Z,16.31
2017-02-23T02:58:57.918Z,16.33
2017-02-23T03:00:07.243Z,16.38
2017-02-23T03:01:16.604Z,16.33
2017-02-23T03:02:25.926Z,16.38
2017-02-23T03:03:35.311Z,16.35
2017-02-23T03:04:44.653Z,16.31
2017-02-23T03:05:54.470Z,16.33
2017-02-23T03:07:03.791Z,16.34
2017-02-23T03:08:13.122Z,16.38
2017-02-23T03:09:22.928Z,16.34
2017-02-23T03:10:33.123Z,16.35
2017-02-23T03:11:42.444Z,16.3
2017-02-23T03:12:52.231Z,16.33
2017-02-23T03:14:01.981Z,16.38
2017-02-23T03:15:11.803Z,16.31
2017-02-23T03:16:22.016Z,16.28
2017-02-23T03:17:31.341Z,16.33
2017-02-23T03:18:40.679Z,16.39
2017-02-23T03:19:50.880Z,16.28
2017-02-23T03:21:00.262Z,16.38
2017-02-23T03:22:09.587Z,16.35
2017-02-23T03:23:18.898Z,16.27
2017-02-23T03:24:28.665Z,16.38
2017-02-23T03:25:38.010Z,16.34
2017-02-23T03:26:47.831Z,16.34
2017-02-23T03:27:57.156Z,16.39
2017-02-23T03:29:06.931Z,16.27
2017-02-23T03:30:17.137Z,16.33
2017-02-23T03:31:26.916Z,16.34
2017-02-23T03:32:36.725Z,16.3
2017-02-23T03:33:46.493Z,16.28
2017-02-23T03:34:56.282Z,16.38
2017-02-23T03:36:05.601Z,16.34
2017-02-23T03:37:15.393Z,16.28
2017-02-23T03:38:24.763Z,16.27
2017-02-23T03:39:34.086Z,16.28
2017-02-23T03:40:43.409Z,16.21
2017-02-23T03:41:52.714Z,16.35
2017-02-23T03:43:02.054Z,16.27
2017-02-23T03:44:11.870Z,16.21
2017-02-23T03:45:21.262Z,16.27
2017-02-23T03:46:30.599Z,16.25
2017-02-23T03:47:39.944Z,16.31
2017-02-23T03:48:50.142Z,16.23
2017-02-23T03:49:59.519Z,16.25
2017-02-23T03:51:09.289Z,16.24
2017-02-23T03:52:18.660Z,16.27
2017-02-23T03:53:28.419Z,16.24
2017-02-23T03:54:37.747Z,16.35
2017-02-23T03:55:47.990Z,16.17
2017-02-23T03:56:57.746Z,16.3
2017-02-23T03:58:07.520Z,16.24
2017-02-23T03:59:16.829Z,16.27
2017-02-23T04:00:26.175Z,16.21
2017-02-23T04:01:36.164Z,16.23
2017-02-23T04:02:45.477Z,16.17
2017-02-23T04:03:55.238Z,16.25
2017-02-23T04:05:05.022Z,16.2
2017-02-23T04:06:15.253Z,16.25
2017-02-23T04:07:24.626Z,16.24
2017-02-23T04:08:33.946Z,16.23
2017-02-23T04:09:44.161Z,16.21
2017-02-23T04:10:53.922Z,16.25
2017-02-23T04:12:03.239Z,16.25
2017-02-23T04:13:12.603Z,16.24
2017-02-23T04:14:21.936Z,16.25
2017-02-23T04:15:31.251Z,16.24
2017-02-23T04:16:40.600Z,16.17
2017-02-23T04:17:50.401Z,16.24
2017-02-23T04:18:59.784Z,16.24
2017-02-23T04:20:09.574Z,16.3
2017-02-23T04:21:19.357Z,16.31
2017-02-23T04:22:28.667Z,16.23
2017-02-23T04:23:37.999Z,16.24
2017-02-23T04:24:47.377Z,16.23
2017-02-23T04:25:56.730Z,16.2
2017-02-23T04:27:06.063Z,16.23
2017-02-23T04:28:15.372Z,16.21
2017-02-23T04:29:24.689Z,16.2
2017-02-23T04:30:34.495Z,16.23
2017-02-23T04:31:44.268Z,16.21
2017-02-23T04:32:53.606Z,16.21
2017-02-23T04:34:02.914Z,16.2
2017-02-23T04:35:12.230Z,16.17
2017-02-23T04:36:21.622Z,16.15
2017-02-23T04:37:30.962Z,16.15
2017-02-23T04:38:40.307Z,16.17
2017-02-23T04:39:49.645Z,16.17
2017-02-23T04:40:58.954Z,16.24
2017-02-23T04:42:08.754Z,16.21
2017-02-23T04:43:18.076Z,16.17
2017-02-23T04:44:27.381Z,16.23
2017-02-23T04:45:36.694Z,16.14
2017-02-23T04:46:46.018Z,16.17
2017-02-23T04:47:55.828Z,16.24
2017-02-23T04:49:05.133Z,16.17
2017-02-23T04:50:14.477Z,16.2
2017-02-23T04:51:24.677Z,16.21
2017-02-23T04:52:33.981Z,16.17
2017-02-23T04:53:43.345Z,16.23
2017-02-23T04:54:52.670Z,16.17
2017-02-23T04:56:02.424Z,16.17
2017-02-23T04:57:13.072Z,16.2
2017-02-23T04:58:23.727Z,16.14
2017-02-23T04:59:33.400Z,16.17
2017-02-23T05:00:42.736Z,16.14
2017-02-23T05:01:52.489Z,16.12
2017-02-23T05:03:02.259Z,16.12
2017-02-23T05:04:12.009Z,16.24
2017-02-23T05:05:21.378Z,16.11
2017-02-23T05:06:30.699Z,16.17
2017-02-23T05:07:40.044Z,16.09
2017-02-23T05:08:49.381Z,16.12
2017-02-23T05:09:58.723Z,16.14
2017-02-23T05:11:08.110Z,16.23
2017-02-23T05:12:17.436Z,16.14
2017-02-23T05:13:27.233Z,16.12
2017-02-23T05:14:37.027Z,16.12
2017-02-23T05:15:46.784Z,16.17
2017-02-23T05:16:57.054Z,16.12
2017-02-23T05:18:06.383Z,16.11
2017-02-23T05:19:16.172Z,16.08
2017-02-23T05:20:25.933Z,16.11
2017-02-23T05:21:35.246Z,16.08
2017-02-23T05:22:45.058Z,16.11
2017-02-23T05:23:55.287Z,16.07
2017-02-23T05:25:05.935Z,16.09
2017-02-23T05:26:15.251Z,16.17
2017-02-23T05:27:24.596Z,16.17
2017-02-23T05:28:34.406Z,16.11
2017-02-23T05:29:43.740Z,16.08
2017-02-23T05:30:53.090Z,16.08
2017-02-23T05:32:03.323Z,16.15
2017-02-23T05:33:12.638Z,16.08
2017-02-23T05:34:22.444Z,16.11
2017-02-23T05:35:32.253Z,16.11
2017-02-23T05:36:41.578Z,16.24
2017-02-23T05:37:51.835Z,16.09
2017-02-23T05:39:01.141Z,16.14
2017-02-23T05:40:10.506Z,16.12
2017-02-23T05:41:19.835Z,16.23
2017-02-23T05:42:29.144Z,16.23
2017-02-23T05:43:38.453Z,16.21
2017-02-23T05:44:47.782Z,16.15
2017-02-23T05:45:57.135Z,16.25
2017-02-23T05:47:06.473Z,16.21
2017-02-23T05:48:15.792Z,16.14
2017-02-23T05:49:25.999Z,16.21
2017-02-23T05:50:35.317Z,16.21
2017-02-23T05:51:45.118Z,16.2
2017-02-23T05:52:54.459Z,16.24
2017-02-23T05:54:03.782Z,16.23
2017-02-23T05:55:13.565Z,16.17
2017-02-23T05:56:22.895Z,16.2
2017-02-23T05:57:32.727Z,16.15
2017-02-23T05:58:43.753Z,16.23
2017-02-23T05:59:56.534Z,16.2
2017-02-23T06:01:07.826Z,16.17
2017-02-23T06:02:19.080Z,16.24
2017-02-23T06:03:28.477Z,16.2
2017-02-23T06:04:37.795Z,16.17
2017-02-23T06:05:47.124Z,16.14
2017-02-23T06:06:56.466Z,16.17
2017-02-23T06:08:05.813Z,16.17
2017-02-23T06:09:15.619Z,16.17
2017-02-23T06:10:24.941Z,16.17
2017-02-23T06:11:34.690Z,16.2
2017-02-23T06:12:44.014Z,16.2
2017-02-23T06:13:54.243Z,16.21
2017-02-23T06:15:04.065Z,16.23
2017-02-23T06:16:13.845Z,16.24
2017-02-23T06:17:24.484Z,16.2
2017-02-23T06:18:33.857Z,16.17
2017-02-23T06:19:43.613Z,16.23
2017-02-23T06:20:53.887Z,16.23
2017-02-23T06:22:03.655Z,16.17
2017-02-23T06:23:12.996Z,16.2
2017-02-23T06:24:23.195Z,16.17
2017-02-23T06:25:32.520Z,16.17
2017-02-23T06:26:42.437Z,16.2
2017-02-23T06:27:51.761Z,16.2
2017-02-23T06:29:01.984Z,16.14
2017-02-23T06:30:11.305Z,16.2
2017-02-23T06:31:21.066Z,16.2
2017-02-23T06:32:30.431Z,16.11
2017-02-23T06:33:40.229Z,16.2
2017-02-23T06:34:49.546Z,16.17
2017-02-23T06:35:58.875Z,16.11
2017-02-23T06:37:08.224Z,16.2
2017-02-23T06:38:18.496Z,16.12
2017-02-23T06:39:28.278Z,16.12
2017-02-23T06:40:37.596Z,16.21
2017-02-23T06:41:46.909Z,16.17
2017-02-23T06:42:56.230Z,16.2
2017-02-23T06:44:06.066Z,16.17
2017-02-23T06:45:15.840Z,16.23
2017-02-23T06:46:26.046Z,16.2
2017-02-23T06:47:35.382Z,16.17
2017-02-23T06:48:44.704Z,16.17
2017-02-23T06:49:54.075Z,16.14
2017-02-23T06:51:03.829Z,16.23
2017-02-23T06:52:13.575Z,16.23
2017-02-23T06:53:23.357Z,16.2
2017-02-23T06:54:32.704Z,16.21
2017-02-23T06:55:43.423Z,16.2
2017-02-23T06:56:53.632Z,16.23
2017-02-23T06:58:03.413Z,16.2
2017-02-23T06:59:12.730Z,16.23
2017-02-23T07:00:22.051Z,16.21
2017-02-23T07:01:31.916Z,16.23
2017-02-23T07:02:42.114Z,16.15
2017-02-23T07:03:51.875Z,16.21
2017-02-23T07:05:01.200Z,16.21
2017-02-23T07:06:10.538Z,16.24
2017-02-23T07:07:20.377Z,16.2
2017-02-23T07:08:30.127Z,16.21
2017-02-23T07:09:39.464Z,16.17
2017-02-23T07:10:48.784Z,16.15
2017-02-23T07:11:58.543Z,16.23
2017-02-23T07:13:07.928Z,16.2
2017-02-23T07:14:17.692Z,16.23
2017-02-23T07:15:27.441Z,16.27
2017-02-23T07:16:37.192Z,16.24
2017-02-23T07:17:46.519Z,16.3
2017-02-23T07:18:56.325Z,16.25
2017-02-23T07:20:06.083Z,16.21
2017-02-23T07:21:15.884Z,16.21
2017-02-23T07:22:25.213Z,16.25
2017-02-23T07:23:35.419Z,16.3
2017-02-23T07:24:45.658Z,16.15
2017-02-23T07:25:55.447Z,16.21
2017-02-23T07:27:05.210Z,16.25
2017-02-23T07:28:14.577Z,16.28
2017-02-23T07:29:24.343Z,16.25
2017-02-23T07:30:33.713Z,16.21
2017-02-23T07:31:43.036Z,16.3
2017-02-23T07:32:53.679Z,16.25
2017-02-23T07:34:03.441Z,16.25
2017-02-23T07:35:12.756Z,16.25
2017-02-23T07:36:22.150Z,16.25
2017-02-23T07:37:31.467Z,16.28
2017-02-23T07:38:40.805Z,16.28
2017-02-23T07:39:50.149Z,16.3
2017-02-23T07:40:59.923Z,16.28
2017-02-23T07:42:09.295Z,16.23
2017-02-23T07:43:19.070Z,16.23
2017-02-23T07:44:28.399Z,16.23
2017-02-23T07:45:37.720Z,16.25
2017-02-23T07:46:47.911Z,16.27
2017-02-23T07:47:57.737Z,16.27
2017-02-23T07:49:07.518Z,16.24
2017-02-23T07:50:17.729Z,16.24
2017-02-23T07:51:27.504Z,16.15
2017-02-23T07:52:36.835Z,16.24
2017-02-23T07:53:46.196Z,16.3
2017-02-23T07:54:55.524Z,16.25
2017-02-23T07:56:04.859Z,16.3
2017-02-23T07:57:14.170Z,16.24
2017-02-23T07:58:24.369Z,16.24
2017-02-23T07:59:33.746Z,16.27
2017-02-23T08:00:43.538Z,16.25
2017-02-23T08:01:54.197Z,16.23
2017-02-23T08:03:03.973Z,16.23
2017-02-23T08:04:13.290Z,16.24
2017-02-23T08:05:23.120Z,16.21
2017-02-23T08:06:32.457Z,16.21
2017-02-23T08:07:42.235Z,16.21
2017-02-23T08:08:51.559Z,16.24
2017-02-23T08:10:01.341Z,16.21
2017-02-23T08:11:11.173Z,16.21
2017-02-23T08:12:21.399Z,16.25
2017-02-23T08:13:30.748Z,16.23
2017-02-23T08:14:40.517Z,16.21
2017-02-23T08:15:49.853Z,16.21
2017-02-23T08:17:00.256Z,16.27
2017-02-23T08:18:10.020Z,16.24
2017-02-23T08:19:19.346Z,16.28
2017-02-23T08:20:29.107Z,16.21
2017-02-23T08:21:38.432Z,16.27
2017-02-23T08:22:47.814Z,16.21
2017-02-23T08:23:57.139Z,16.23
2017-02-23T08:25:06.464Z,16.25
2017-02-23T08:26:16.220Z,16.24
2017-02-23T08:27:25.582Z,16.24
2017-02-23T08:28:34.970Z,16.33
2017-02-23T08:29:44.715Z,16.3
2017-02-23T08:30:54.514Z,16.35
2017-02-23T08:32:03.844Z,16.33
2017-02-23T08:33:13.195Z,16.25
2017-02-23T08:34:23.166Z,16.41
2017-02-23T08:35:32.506Z,16.34
2017-02-23T08:36:41.839Z,16.38
2017-02-23T08:37:51.153Z,16.3
2017-02-23T08:39:00.477Z,16.31
2017-02-23T08:40:10.311Z,16.34
2017-02-23T08:41:20.084Z,16.39
2017-02-23T08:42:29.837Z,16.38
2017-02-23T08:43:39.175Z,16.42
2017-02-23T08:44:48.512Z,16.41
2017-02-23T08:45:58.340Z,16.39
2017-02-23T08:47:08.086Z,16.41
2017-02-23T08:48:17.391Z,16.43
2017-02-23T08:49:27.164Z,16.45
2017-02-23T08:50:37.396Z,16.48
2017-02-23T08:51:47.219Z,16.53
2017-02-23T08:52:56.531Z,16.49
2017-02-23T08:54:05.865Z,16.43
2017-02-23T08:55:16.066Z,16.43
2017-02-23T08:56:25.398Z,16.5
2017-02-23T08:57:35.637Z,16.45
2017-02-23T08:58:45.857Z,16.56
2017-02-23T08:59:55.207Z,16.5
2017-02-23T09:01:04.977Z,16.48
2017-02-23T09:02:14.297Z,16.53
2017-02-23T09:03:24.154Z,16.64
2017-02-23T09:04:33.495Z,16.63
2017-02-23T09:05:43.711Z,16.66
2017-02-23T09:06:53.058Z,16.68
2017-02-23T09:08:02.375Z,16.7
2017-02-23T09:09:12.180Z,16.6
2017-02-23T09:10:21.954Z,16.64
2017-02-23T09:11:31.280Z,16.61
2017-02-23T09:12:41.047Z,16.66
2017-02-23T09:13:50.368Z,16.58
2017-02-23T09:14:59.753Z,16.63
2017-02-23T09:16:09.067Z,16.63
2017-02-23T09:17:18.384Z,16.53
2017-02-23T09:18:27.732Z,16.5
2017-02-23T09:19:37.062Z,16.53
2017-02-23T09:20:46.435Z,16.49
2017-02-23T09:21:55.772Z,16.5
2017-02-23T09:23:05.535Z,16.49
2017-02-23T09:24:15.306Z,16.46
2017-02-23T09:25:24.618Z,16.56
2017-02-23T09:26:34.433Z,16.5
2017-02-23T09:27:44.214Z,16.52
2017-02-23T09:28:53.519Z,16.46
2017-02-23T09:30:03.725Z,16.48
2017-02-23T09:31:13.479Z,16.49
2017-02-23T09:32:22.850Z,16.53
2017-02-23T09:33:32.179Z,16.53
2017-02-23T09:34:41.504Z,16.49
2017-02-23T09:35:50.810Z,16.48
2017-02-23T09:37:00.567Z,16.49
2017-02-23T09:38:10.374Z,16.45
2017-02-23T09:39:20.589Z,16.52
2017-02-23T09:40:29.906Z,16.49
2017-02-23T09:41:39.667Z,16.57
2017-02-23T09:42:49.005Z,16.53
2017-02-23T09:43:58.378Z,16.56
2017-02-23T09:45:07.718Z,16.45
2017-02-23T09:46:17.927Z,16.5
2017-02-23T09:47:27.709Z,16.48
2017-02-23T09:48:37.909Z,16.45
2017-02-23T09:49:47.743Z,16.53
2017-02-23T09:50:57.516Z,16.42
2017-02-23T09:52:06.846Z,16.46
2017-02-23T09:53:16.647Z,16.46
2017-02-23T09:54:26.446Z,16.5
2017-02-23T09:55:36.693Z,16.46
2017-02-23T09:56:46.027Z,16.41
2017-02-23T09:57:55.376Z,16.57
2017-02-23T09:59:04.701Z,16.42
2017-02-23T10:00:14.017Z,16.5
2017-02-23T10:01:23.407Z,16.53
2017-02-23T10:02:32.744Z,16.53
2017-02-23T10:03:42.934Z,16.48
2017-02-23T10:04:52.703Z,16.48
2017-02-23T10:06:02.508Z,16.5
2017-02-23T10:07:11.987Z,16.52
2017-02-23T10:08:22.633Z,16.52
2017-02-23T10:09:32.383Z,16.45
2017-02-23T10:10:41.688Z,16.5
2017-02-23T10:11:51.456Z,16.48
2017-02-23T10:13:01.287Z,16.56
2017-02-23T10:14:11.055Z,16.5
2017-02-23T10:15:21.240Z,16.49
2017-02-23T10:16:30.578Z,16.5
2017-02-23T10:17:39.896Z,16.57
2017-02-23T10:18:50.184Z,16.56
2017-02-23T10:19:59.498Z,16.5
2017-02-23T10:21:08.827Z,16.57
2017-02-23T10:22:18.139Z,16.53
2017-02-23T10:23:27.463Z,16.52
2017-02-23T10:24:37.745Z,16.57
2017-02-23T10:25:47.535Z,16.61
2017-02-23T10:26:56.867Z,16.53
2017-02-23T10:28:07.093Z,16.53
2017-02-23T10:29:16.413Z,16.49
2017-02-23T10:30:26.672Z,16.66
2017-02-23T10:31:36.445Z,16.5
2017-02-23T10:32:45.754Z,16.57
2017-02-23T10:33:55.526Z,16.52
2017-02-23T10:35:05.293Z,16.57
2017-02-23T10:36:14.670Z,16.58
2017-02-23T10:37:23.983Z,16.56
2017-02-23T10:38:33.308Z,16.48
2017-02-23T10:39:42.632Z,16.56
2017-02-23T10:40:52.833Z,16.52
2017-02-23T10:42:03.096Z,16.5
2017-02-23T10:43:12.407Z,16.5
2017-02-23T10:44:21.728Z,16.52
2017-02-23T10:45:31.923Z,16.5
2017-02-23T10:46:41.283Z,16.53
2017-02-23T10:47:50.657Z,16.48
2017-02-23T10:49:00.406Z,16.58
2017-02-23T10:50:09.750Z,16.52
2017-02-23T10:51:19.077Z,16.61
2017-02-23T10:52:29.302Z,16.61
2017-02-23T10:53:38.679Z,16.57
2017-02-23T10:54:47.992Z,16.61
2017-02-23T10:55:57.321Z,16.61
2017-02-23T10:57:06.641Z,16.64
2017-02-23T10:58:16.403Z,16.78
2017-02-23T10:59:25.769Z,16.71
2017-02-23T11:00:35.538Z,16.76
2017-02-23T11:01:45.739Z,16.75
2017-02-23T11:02:55.084Z,16.73
2017-02-23T11:04:04.427Z,16.78
2017-02-23T11:05:13.794Z,16.83
2017-02-23T11:06:23.132Z,16.82
2017-02-23T11:07:32.473Z,16.86
2017-02-23T11:08:41.807Z,16.86
2017-02-23T11:09:51.587Z,16.94
2017-02-23T11:11:00.988Z,16.89
2017-02-23T11:12:10.318Z,17
2017-02-23T11:13:19.643Z,16.94
2017-02-23T11:14:28.989Z,16.98
2017-02-23T11:15:38.764Z,16.94
2017-02-23T11:16:48.591Z,16.91
2017-02-23T11:17:57.907Z,16.89
2017-02-23T11:19:07.665Z,16.93
2017-02-23T11:20:17.423Z,16.98
2017-02-23T11:21:27.191Z,16.93
2017-02-23T11:22:36.561Z,16.96
2017-02-23T11:23:45.884Z,17
2017-02-23T11:24:55.667Z,16.96
2017-02-23T11:26:05.439Z,16.98
2017-02-23T11:27:15.196Z,16.94
2017-02-23T11:28:25.022Z,16.96
2017-02-23T11:29:34.380Z,16.94
2017-02-23T11:30:43.721Z,16.97
2017-02-23T11:31:53.473Z,16.98
2017-02-23T11:33:03.251Z,16.94
2017-02-23T11:34:12.644Z,16.93
2017-02-23T11:35:21.976Z,16.93
2017-02-23T11:36:31.749Z,16.94
2017-02-23T11:37:41.082Z,16.93
2017-02-23T11:38:50.857Z,16.96
2017-02-23T11:40:00.670Z,16.96
2017-02-23T11:41:10.439Z,16.96
2017-02-23T11:42:19.755Z,16.97
2017-02-23T11:43:29.509Z,16.98
2017-02-23T11:44:39.725Z,16.88
2017-02-23T11:45:49.995Z,17.03
2017-02-23T11:46:59.760Z,16.91
2017-02-23T11:48:09.090Z,16.97
2017-02-23T11:49:19.323Z,17.03
2017-02-23T11:50:29.088Z,17.03
2017-02-23T11:51:38.469Z,17.06
2017-02-23T11:52:47.798Z,17.14
2017-02-23T11:53:57.123Z,17.14
2017-02-23T11:55:06.437Z,17.03
2017-02-23T11:56:16.210Z,17.08
2017-02-23T11:57:25.583Z,17.08
2017-02-23T11:58:34.912Z,17.07
2017-02-23T11:59:44.681Z,17.12
2017-02-23T12:00:53.998Z,17.07
2017-02-23T12:02:03.327Z,17.03
2017-02-23T12:03:12.691Z,17.08
2017-02-23T12:04:22.446Z,17.07
2017-02-23T12:05:31.777Z,17.08
2017-02-23T12:06:41.580Z,17.11
2017-02-23T12:07:50.934Z,17.11
2017-02-23T12:09:00.750Z,17.06
2017-02-23T12:10:10.535Z,17.11
2017-02-23T12:11:20.340Z,17.06
2017-02-23T12:12:30.156Z,17.03
2017-02-23T12:13:39.923Z,17.01
2017-02-23T12:14:49.295Z,17.03
2017-02-23T12:15:58.611Z,17.07
2017-02-23T12:17:08.382Z,17.15
2017-02-23T12:18:17.715Z,17.11
2017-02-23T12:19:27.461Z,17.08
2017-02-23T12:20:36.826Z,17.15
2017-02-23T12:21:46.603Z,17.11
2017-02-23T12:22:55.934Z,17.19
2017-02-23T12:24:06.588Z,17.21
2017-02-23T12:25:17.238Z,17.15
2017-02-23T12:26:27.055Z,17.18
2017-02-23T12:27:36.820Z,17.15
2017-02-23T12:28:47.022Z,17.21
2017-02-23T12:29:56.343Z,17.22
2017-02-23T12:31:06.103Z,17.18
2017-02-23T12:32:15.493Z,17.19
2017-02-23T12:33:24.819Z,17.19
2017-02-23T12:34:35.018Z,17.18
2017-02-23T12:35:44.792Z,17.22
2017-02-23T12:36:54.114Z,17.22
2017-02-23T12:38:03.511Z,17.22
2017-02-23T12:39:12.839Z,17.16
2017-02-23T12:40:22.200Z,17.15
2017-02-23T12:41:31.534Z,17.18
2017-02-23T12:42:40.851Z,17.15
2017-02-23T12:43:50.364Z,17.12
2017-02-23T12:45:00.130Z,17.14
2017-02-23T12:46:09.879Z,17.03
2017-02-23T12:47:19.187Z,17.19
2017-02-23T12:48:28.965Z,17.18
2017-02-23T12:49:38.390Z,17.16
2017-02-23T12:50:48.147Z,17.16
2017-02-23T12:51:57.505Z,17.19
2017-02-23T12:53:06.836Z,17.19
2017-02-23T12:54:16.153Z,17.06
2017-02-23T12:55:25.956Z,17.06
2017-02-23T12:56:35.263Z,17.12
2017-02-23T12:57:45.918Z,17.12
2017-02-23T12:58:55.254Z,17.08
2017-02-23T13:00:05.045Z,17.11
2017-02-23T13:01:14.410Z,17.08
2017-02-23T13:02:24.191Z,17.12
2017-02-23T13:03:33.982Z,17.01
2017-02-23T13:04:43.736Z,16.96
2017-02-23T13:05:53.066Z,17
2017-02-23T13:07:02.465Z,16.97
2017-02-23T13:08:11.803Z,16.96
2017-02-23T13:09:21.997Z,16.91
2017-02-23T13:10:31.791Z,17
2017-02-23T13:11:42.440Z,16.98
2017-02-23T13:12:51.797Z,16.98
2017-02-23T13:14:01.126Z,16.96
2017-02-23T13:15:10.466Z,16.96
2017-02-23T13:16:20.685Z,17.06
2017-02-23T13:17:30.022Z,17
2017-02-23T13:18:39.392Z,17.06
2017-02-23T13:19:48.704Z,17.14
2017-02-23T13:20:58.044Z,17.12
2017-02-23T13:22:07.817Z,17.07
2017-02-23T13:23:17.124Z,17.07
2017-02-23T13:24:26.501Z,17.04
2017-02-23T13:25:35.834Z,16.97
2017-02-23T13:26:46.046Z,16.93
2017-02-23T13:27:56.271Z,16.96
2017-02-23T13:29:06.029Z,16.96
2017-02-23T13:30:15.799Z,16.94
2017-02-23T13:31:25.126Z,17.01
2017-02-23T13:32:34.475Z,16.96
2017-02-23T13:33:44.230Z,16.88
2017-02-23T13:34:53.543Z,16.91
2017-02-23T13:36:02.957Z,16.86
2017-02-23T13:37:13.209Z,16.83
2017-02-23T13:38:22.971Z,16.89
2017-02-23T13:39:32.760Z,16.82
2017-02-23T13:40:42.512Z,16.83
2017-02-23T13:41:52.778Z,16.86
2017-02-23T13:43:02.543Z,16.83
2017-02-23T13:44:12.733Z,16.79
2017-02-23T13:45:22.066Z,16.76
2017-02-23T13:46:33.490Z,16.75
2017-02-23T13:47:44.552Z,16.75
2017-02-23T13:48:54.860Z,16.71
2017-02-23T13:50:04.911Z,16.73
2017-02-23T13:51:16.016Z,16.78
2017-02-23T13:52:27.028Z,16.83
2017-02-23T13:53:38.525Z,16.78
2017-02-23T13:54:49.947Z,16.82
2017-02-23T13:56:01.392Z,16.79
2017-02-23T13:57:12.817Z,16.82
2017-02-23T13:58:24.242Z,16.83
2017-02-23T13:59:35.566Z,16.93
2017-02-23T14:00:45.401Z,16.89
2017-02-23T14:01:56.554Z,16.93
2017-02-23T14:03:07.580Z,16.93
2017-02-23T14:04:17.331Z,16.94
2017-02-23T14:05:26.799Z,16.94
2017-02-23T14:06:36.399Z,16.98
2017-02-23T14:07:47.318Z,16.96
2017-02-23T14:08:57.815Z,16.93
2017-02-23T14:10:08.111Z,16.89
2017-02-23T14:11:19.156Z,16.88
2017-02-23T14:12:30.601Z,16.91
2017-02-23T14:13:41.626Z,16.85
2017-02-23T14:14:53.052Z,16.91
2017-02-23T14:16:04.484Z,16.86
2017-02-23T14:17:16.018Z,16.91
2017-02-23T14:18:27.031Z,16.96
2017-02-23T14:19:38.486Z,16.98
2017-02-23T14:20:49.489Z,16.98
2017-02-23T14:22:00.935Z,16.94
2017-02-23T14:23:12.412Z,17.08
2017-02-23T14:24:23.849Z,17.08
2017-02-23T14:25:35.274Z,17.15
2017-02-23T14:26:46.703Z,17.16
2017-02-23T14:27:58.125Z,17.21
2017-02-23T14:29:09.610Z,17.18
2017-02-23T14:30:20.595Z,17.23
2017-02-23T14:31:32.028Z,17.23
2017-02-23T14:32:43.465Z,17.18
2017-02-23T14:33:54.910Z,17.23
2017-02-23T14:35:06.376Z,17.26
2017-02-23T14:36:17.804Z,17.23
2017-02-23T14:37:29.254Z,17.18
2017-02-23T14:38:40.671Z,17.3
2017-02-23T14:39:51.672Z,17.28
2017-02-23T14:41:03.141Z,17.3
2017-02-23T14:42:14.559Z,17.26
2017-02-23T14:43:25.992Z,17.3
2017-02-23T14:44:37.433Z,17.4
2017-02-23T14:45:48.866Z,17.38
2017-02-23T14:47:00.344Z,17.36
2017-02-23T14:48:11.788Z,17.37
2017-02-23T14:49:23.206Z,17.38
2017-02-23T14:50:35.291Z,17.44
2017-02-23T14:51:47.275Z,17.44
2017-02-23T14:52:58.901Z,17.46
2017-02-23T14:54:10.135Z,17.48
2017-02-23T14:55:21.408Z,17.51
2017-02-23T14:56:32.195Z,17.56
2017-02-23T14:57:43.375Z,17.58
2017-02-23T14:58:54.423Z,17.62
2017-02-23T15:00:05.436Z,17.66
2017-02-23T15:01:16.872Z,17.74
2017-02-23T15:02:27.863Z,17.7